Terminal Aerodrome Forecast
Issued by NWS

Home | Current Version | Previous Version | Text Only | Print | Product List | Glossary On
Versions: 1 2 3 4 5 6 7 8 9 10 11 12 13 14 15 16 17 18 19 20 21 22 23 24
000
FTUS42 KGSP 181700
TAFAND
TAF
KAND 181735Z 1818/1918 00000KT P6SM SCT040 BKN250
     FM190400 04005KT P6SM BKN045
     FM190900 05005KT 4SM BR BKN018
     FM191100 06006KT 3SM BR OVC007
     FM191400 07007KT P6SM BKN019
     FM191600 08008KT P6SM BKN040=

USA.gov is the U.S. government's official web portal to all federal, state and local government web resources and services.